sensor_id;sensor_type;location;lat;lon;timestamp;P1;durP1;ratioP1;P2;durP2;ratioP2
18072;SDS011;9161;47.348;9.648;2023-11-21T00:01:37;3.20;;;1.60;;
18072;SDS011;9161;47.348;9.648;2023-11-21T00:06:39;4.83;;;1.90;;
18072;SDS011;9161;47.348;9.648;2023-11-21T00:11:42;3.23;;;1.73;;
18072;SDS011;9161;47.348;9.648;2023-11-21T00:16:45;5.60;;;1.97;;
18072;SDS011;9161;47.348;9.648;2023-11-21T00:21:47;2.37;;;1.40;;
18072;SDS011;9161;47.348;9.648;2023-11-21T00:26:50;2.60;;;1.60;;
18072;SDS011;9161;47.348;9.648;2023-11-21T00:31:53;5.17;;;2.33;;
18072;SDS011;9161;47.348;9.648;2023-11-21T00:36:54;1.83;;;1.20;;
18072;SDS011;9161;47.348;9.648;2023-11-21T00:41:58;2.90;;;1.60;;
18072;SDS011;9161;47.348;9.648;2023-11-21T00:47:00;8.03;;;1.57;;
18072;SDS011;9161;47.348;9.648;2023-11-21T00:52:03;7.53;;;1.73;;
18072;SDS011;9161;47.348;9.648;2023-11-21T00:57:07;1.93;;;1.30;;
18072;SDS011;9161;47.348;9.648;2023-11-21T01:02:09;4.67;;;1.57;;
18072;SDS011;9161;47.348;9.648;2023-11-21T01:07:11;3.83;;;1.53;;
18072;SDS011;9161;47.348;9.648;2023-11-21T01:12:15;2.40;;;1.23;;
18072;SDS011;9161;47.348;9.648;2023-11-21T01:17:17;5.40;;;1.90;;
18072;SDS011;9161;47.348;9.648;2023-11-21T01:22:20;2.87;;;1.50;;
18072;SDS011;9161;47.348;9.648;2023-11-21T01:27:27;4.10;;;1.70;;
18072;SDS011;9161;47.348;9.648;2023-11-21T01:32:29;3.23;;;1.60;;
18072;SDS011;9161;47.348;9.648;2023-11-21T01:37:32;6.50;;;1.80;;
18072;SDS011;9161;47.348;9.648;2023-11-21T01:42:35;3.83;;;1.37;;
18072;SDS011;9161;47.348;9.648;2023-11-21T01:47:37;8.43;;;1.83;;
18072;SDS011;9161;47.348;9.648;2023-11-21T01:52:41;2.23;;;1.30;;
18072;SDS011;9161;47.348;9.648;2023-11-21T01:57:45;3.97;;;1.40;;
18072;SDS011;9161;47.348;9.648;2023-11-21T02:02:48;3.73;;;1.47;;
18072;SDS011;9161;47.348;9.648;2023-11-21T02:07:50;3.60;;;1.50;;
18072;SDS011;9161;47.348;9.648;2023-11-21T02:12:54;2.43;;;1.30;;
18072;SDS011;9161;47.348;9.648;2023-11-21T02:17:57;1.83;;;0.90;;
18072;SDS011;9161;47.348;9.648;2023-11-21T02:23:00;2.53;;;1.17;;
18072;SDS011;9161;47.348;9.648;2023-11-21T02:28:03;2.47;;;1.20;;
18072;SDS011;9161;47.348;9.648;2023-11-21T02:33:07;1.83;;;0.90;;
18072;SDS011;9161;47.348;9.648;2023-11-21T02:38:10;3.27;;;0.97;;
18072;SDS011;9161;47.348;9.648;2023-11-21T02:43:12;4.93;;;1.10;;
18072;SDS011;9161;47.348;9.648;2023-11-21T02:48:14;2.57;;;1.23;;
18072;SDS011;9161;47.348;9.648;2023-11-21T02:53:17;2.50;;;1.10;;
18072;SDS011;9161;47.348;9.648;2023-11-21T02:58:19;4.47;;;1.37;;
18072;SDS011;9161;47.348;9.648;2023-11-21T03:03:21;2.87;;;1.40;;
18072;SDS011;9161;47.348;9.648;2023-11-21T03:08:26;3.23;;;1.60;;
18072;SDS011;9161;47.348;9.648;2023-11-21T03:13:28;3.20;;;1.73;;
18072;SDS011;9161;47.348;9.648;2023-11-21T03:18:30;4.07;;;1.40;;
18072;SDS011;9161;47.348;9.648;2023-11-21T03:23:34;3.70;;;1.30;;
18072;SDS011;9161;47.348;9.648;2023-11-21T03:28:36;2.20;;;1.27;;
18072;SDS011;9161;47.348;9.648;2023-11-21T03:33:38;2.17;;;1.07;;
18072;SDS011;9161;47.348;9.648;2023-11-21T03:38:42;1.70;;;1.10;;
18072;SDS011;9161;47.348;9.648;2023-11-21T03:43:44;2.57;;;1.37;;
18072;SDS011;9161;47.348;9.648;2023-11-21T03:48:46;3.00;;;1.33;;
18072;SDS011;9161;47.348;9.648;2023-11-21T03:53:49;2.67;;;1.40;;
18072;SDS011;9161;47.348;9.648;2023-11-21T03:58:51;2.17;;;1.03;;
18072;SDS011;9161;47.348;9.648;2023-11-21T04:03:53;4.00;;;1.30;;
18072;SDS011;9161;47.348;9.648;2023-11-21T04:08:59;1.40;;;1.07;;
18072;SDS011;9161;47.348;9.648;2023-11-21T04:14:01;3.03;;;1.43;;
18072;SDS011;9161;47.348;9.648;2023-11-21T04:19:03;3.83;;;1.97;;
18072;SDS011;9161;47.348;9.648;2023-11-21T04:24:07;5.67;;;1.80;;
18072;SDS011;9161;47.348;9.648;2023-11-21T04:29:09;3.00;;;1.87;;
18072;SDS011;9161;47.348;9.648;2023-11-21T04:34:11;3.57;;;2.00;;
18072;SDS011;9161;47.348;9.648;2023-11-21T04:39:14;4.10;;;1.93;;
18072;SDS011;9161;47.348;9.648;2023-11-21T04:44:16;4.93;;;1.83;;
18072;SDS011;9161;47.348;9.648;2023-11-21T04:49:18;3.60;;;2.13;;
18072;SDS011;9161;47.348;9.648;2023-11-21T04:54:21;4.73;;;1.50;;
18072;SDS011;9161;47.348;9.648;2023-11-21T04:59:27;7.40;;;1.20;;
18072;SDS011;9161;47.348;9.648;2023-11-21T05:04:29;2.10;;;0.83;;
18072;SDS011;9161;47.348;9.648;2023-11-21T05:09:32;3.23;;;1.00;;
18072;SDS011;9161;47.348;9.648;2023-11-21T05:14:35;4.07;;;1.40;;
18072;SDS011;9161;47.348;9.648;2023-11-21T05:19:37;4.90;;;1.50;;
18072;SDS011;9161;47.348;9.648;2023-11-21T05:24:42;3.60;;;1.30;;
18072;SDS011;9161;47.348;9.648;2023-11-21T05:29:44;1.50;;;0.73;;
18072;SDS011;9161;47.348;9.648;2023-11-21T05:34:46;3.33;;;0.87;;
18072;SDS011;9161;47.348;9.648;2023-11-21T05:39:50;2.70;;;1.17;;
18072;SDS011;9161;47.348;9.648;2023-11-21T05:44:52;2.80;;;1.60;;
18072;SDS011;9161;47.348;9.648;2023-11-21T05:49:54;9.83;;;1.23;;
18072;SDS011;9161;47.348;9.648;2023-11-21T05:54:58;6.60;;;1.77;;
18072;SDS011;9161;47.348;9.648;2023-11-21T06:00:00;2.77;;;1.10;;
18072;SDS011;9161;47.348;9.648;2023-11-21T06:05:09;2.30;;;0.83;;
18072;SDS011;9161;47.348;9.648;2023-11-21T06:10:13;1.57;;;0.90;;
18072;SDS011;9161;47.348;9.648;2023-11-21T06:15:18;7.20;;;1.27;;
18072;SDS011;9161;47.348;9.648;2023-11-21T06:20:22;6.93;;;2.00;;
18072;SDS011;9161;47.348;9.648;2023-11-21T06:25:26;8.80;;;2.17;;
18072;SDS011;9161;47.348;9.648;2023-11-21T06:30:28;4.43;;;2.20;;
18072;SDS011;9161;47.348;9.648;2023-11-21T06:35:31;7.27;;;2.03;;
18072;SDS011;9161;47.348;9.648;2023-11-21T06:40:36;5.93;;;2.03;;
18072;SDS011;9161;47.348;9.648;2023-11-21T06:45:38;8.30;;;2.37;;
18072;SDS011;9161;47.348;9.648;2023-11-21T06:50:40;6.23;;;2.57;;
18072;SDS011;9161;47.348;9.648;2023-11-21T06:55:44;8.40;;;3.17;;
18072;SDS011;9161;47.348;9.648;2023-11-21T07:00:46;5.23;;;2.50;;
18072;SDS011;9161;47.348;9.648;2023-11-21T07:05:52;7.70;;;2.67;;
18072;SDS011;9161;47.348;9.648;2023-11-21T07:10:56;4.73;;;2.47;;
18072;SDS011;9161;47.348;9.648;2023-11-21T07:15:58;4.80;;;2.67;;
18072;SDS011;9161;47.348;9.648;2023-11-21T07:21:01;3.23;;;2.10;;
18072;SDS011;9161;47.348;9.648;2023-11-21T07:26:05;4.33;;;2.60;;
18072;SDS011;9161;47.348;9.648;2023-11-21T07:31:09;3.77;;;2.13;;
18072;SDS011;9161;47.348;9.648;2023-11-21T07:36:11;7.37;;;2.30;;
18072;SDS011;9161;47.348;9.648;2023-11-21T07:41:14;6.77;;;2.87;;
18072;SDS011;9161;47.348;9.648;2023-11-21T07:46:29;6.03;;;2.30;;
18072;SDS011;9161;47.348;9.648;2023-11-21T07:51:32;3.97;;;1.50;;
18072;SDS011;9161;47.348;9.648;2023-11-21T07:56:36;3.10;;;1.70;;
18072;SDS011;9161;47.348;9.648;2023-11-21T08:01:38;6.57;;;2.50;;
18072;SDS011;9161;47.348;9.648;2023-11-21T08:06:43;6.63;;;2.93;;
18072;SDS011;9161;47.348;9.648;2023-11-21T08:11:47;5.37;;;1.90;;
18072;SDS011;9161;47.348;9.648;2023-11-21T08:16:49;2.90;;;1.97;;
18072;SDS011;9161;47.348;9.648;2023-11-21T08:21:51;3.73;;;1.20;;
18072;SDS011;9161;47.348;9.648;2023-11-21T08:26:57;3.53;;;1.63;;
18072;SDS011;9161;47.348;9.648;2023-11-21T08:31:59;7.13;;;2.20;;
18072;SDS011;9161;47.348;9.648;2023-11-21T08:37:02;11.87;;;4.83;;
18072;SDS011;9161;47.348;9.648;2023-11-21T08:42:06;7.00;;;2.73;;
18072;SDS011;9161;47.348;9.648;2023-11-21T08:47:08;5.00;;;2.40;;
18072;SDS011;9161;47.348;9.648;2023-11-21T08:52:10;3.63;;;2.20;;
18072;SDS011;9161;47.348;9.648;2023-11-21T08:57:15;6.07;;;2.90;;
18072;SDS011;9161;47.348;9.648;2023-11-21T09:02:19;6.80;;;2.47;;
18072;SDS011;9161;47.348;9.648;2023-11-21T09:07:22;7.77;;;3.10;;
18072;SDS011;9161;47.348;9.648;2023-11-21T09:12:26;3.30;;;2.20;;
18072;SDS011;9161;47.348;9.648;2023-11-21T09:17:28;4.80;;;1.90;;
18072;SDS011;9161;47.348;9.648;2023-11-21T09:22:30;5.13;;;2.17;;
18072;SDS011;9161;47.348;9.648;2023-11-21T09:27:34;6.30;;;2.00;;
18072;SDS011;9161;47.348;9.648;2023-11-21T09:32:37;3.47;;;2.10;;
18072;SDS011;9161;47.348;9.648;2023-11-21T09:37:41;4.47;;;2.47;;
18072;SDS011;9161;47.348;9.648;2023-11-21T09:42:49;4.20;;;2.30;;
18072;SDS011;9161;47.348;9.648;2023-11-21T09:47:55;8.00;;;2.30;;
18072;SDS011;9161;47.348;9.648;2023-11-21T09:53:09;11.07;;;3.20;;
18072;SDS011;9161;47.348;9.648;2023-11-21T09:58:17;5.47;;;2.40;;
18072;SDS011;9161;47.348;9.648;2023-11-21T10:03:21;5.07;;;2.10;;
18072;SDS011;9161;47.348;9.648;2023-11-21T10:08:23;4.00;;;2.40;;
18072;SDS011;9161;47.348;9.648;2023-11-21T10:13:47;5.67;;;2.80;;
18072;SDS011;9161;47.348;9.648;2023-11-21T10:18:51;4.73;;;1.70;;
18072;SDS011;9161;47.348;9.648;2023-11-21T10:24:09;3.03;;;1.63;;
18072;SDS011;9161;47.348;9.648;2023-11-21T10:29:14;4.17;;;1.83;;
18072;SDS011;9161;47.348;9.648;2023-11-21T10:34:19;2.60;;;1.30;;
18072;SDS011;9161;47.348;9.648;2023-11-21T10:39:22;4.03;;;1.50;;
18072;SDS011;9161;47.348;9.648;2023-11-21T10:44:29;1.60;;;0.90;;
18072;SDS011;9161;47.348;9.648;2023-11-21T10:49:32;2.90;;;1.40;;
18072;SDS011;9161;47.348;9.648;2023-11-21T10:54:34;4.03;;;1.37;;
18072;SDS011;9161;47.348;9.648;2023-11-21T10:59:38;2.23;;;0.87;;
18072;SDS011;9161;47.348;9.648;2023-11-21T11:04:41;1.43;;;1.17;;
18072;SDS011;9161;47.348;9.648;2023-11-21T11:09:46;2.47;;;1.03;;
18072;SDS011;9161;47.348;9.648;2023-11-21T11:14:50;4.80;;;1.67;;
18072;SDS011;9161;47.348;9.648;2023-11-21T11:19:53;1.50;;;0.90;;
18072;SDS011;9161;47.348;9.648;2023-11-21T11:25:12;1.63;;;0.70;;
18072;SDS011;9161;47.348;9.648;2023-11-21T11:30:31;3.13;;;1.10;;
18072;SDS011;9161;47.348;9.648;2023-11-21T11:35:46;2.37;;;1.37;;
18072;SDS011;9161;47.348;9.648;2023-11-21T11:40:54;1.90;;;1.13;;
18072;SDS011;9161;47.348;9.648;2023-11-21T11:45:58;3.30;;;0.97;;
18072;SDS011;9161;47.348;9.648;2023-11-21T11:51:05;1.63;;;0.83;;
18072;SDS011;9161;47.348;9.648;2023-11-21T11:56:23;0.90;;;0.70;;
18072;SDS011;9161;47.348;9.648;2023-11-21T12:01:32;1.43;;;0.63;;
18072;SDS011;9161;47.348;9.648;2023-11-21T12:06:35;1.90;;;0.50;;
18072;SDS011;9161;47.348;9.648;2023-11-21T12:11:38;0.67;;;0.40;;
18072;SDS011;9161;47.348;9.648;2023-11-21T12:16:45;0.40;;;0.30;;
18072;SDS011;9161;47.348;9.648;2023-11-21T12:21:48;0.27;;;0.20;;
18072;SDS011;9161;47.348;9.648;2023-11-21T12:26:52;0.60;;;0.30;;
18072;SDS011;9161;47.348;9.648;2023-11-21T12:31:56;0.63;;;0.40;;
18072;SDS011;9161;47.348;9.648;2023-11-21T12:36:59;0.50;;;0.30;;
18072;SDS011;9161;47.348;9.648;2023-11-21T12:42:01;1.77;;;0.20;;
18072;SDS011;9161;47.348;9.648;2023-11-21T12:47:08;0.40;;;0.30;;
18072;SDS011;9161;47.348;9.648;2023-11-21T12:52:13;0.50;;;0.20;;
18072;SDS011;9161;47.348;9.648;2023-11-21T12:57:15;0.20;;;0.20;;
18072;SDS011;9161;47.348;9.648;2023-11-21T13:02:20;2.10;;;0.37;;
18072;SDS011;9161;47.348;9.648;2023-11-21T13:07:25;0.43;;;0.30;;
18072;SDS011;9161;47.348;9.648;2023-11-21T13:12:28;0.47;;;0.30;;
18072;SDS011;9161;47.348;9.648;2023-11-21T13:17:34;0.40;;;0.30;;
18072;SDS011;9161;47.348;9.648;2023-11-21T13:22:36;0.50;;;0.27;;
18072;SDS011;9161;47.348;9.648;2023-11-21T13:27:39;0.63;;;0.20;;
18072;SDS011;9161;47.348;9.648;2023-11-21T13:32:44;0.30;;;0.20;;
18072;SDS011;9161;47.348;9.648;2023-11-21T13:37:47;0.57;;;0.30;;
18072;SDS011;9161;47.348;9.648;2023-11-21T13:42:53;0.77;;;0.30;;
18072;SDS011;9161;47.348;9.648;2023-11-21T13:48:00;1.07;;;0.40;;
18072;SDS011;9161;47.348;9.648;2023-11-21T13:53:05;0.30;;;0.30;;
18072;SDS011;9161;47.348;9.648;2023-11-21T13:58:18;1.60;;;0.70;;
18072;SDS011;9161;47.348;9.648;2023-11-21T14:03:26;0.43;;;0.30;;
18072;SDS011;9161;47.348;9.648;2023-11-21T14:08:40;1.20;;;0.50;;
18072;SDS011;9161;47.348;9.648;2023-11-21T14:13:42;2.53;;;0.90;;
18072;SDS011;9161;47.348;9.648;2023-11-21T14:18:49;4.63;;;1.73;;
18072;SDS011;9161;47.348;9.648;2023-11-21T14:23:56;6.43;;;3.30;;
18072;SDS011;9161;47.348;9.648;2023-11-21T14:29:01;2.03;;;1.00;;
18072;SDS011;9161;47.348;9.648;2023-11-21T14:34:07;1.90;;;0.50;;
18072;SDS011;9161;47.348;9.648;2023-11-21T14:39:09;0.80;;;0.50;;
18072;SDS011;9161;47.348;9.648;2023-11-21T14:44:23;1.63;;;0.30;;
18072;SDS011;9161;47.348;9.648;2023-11-21T14:49:29;1.43;;;0.50;;
18072;SDS011;9161;47.348;9.648;2023-11-21T14:54:42;2.87;;;1.00;;
18072;SDS011;9161;47.348;9.648;2023-11-21T14:59:47;0.67;;;0.67;;
18072;SDS011;9161;47.348;9.648;2023-11-21T15:04:54;2.63;;;0.87;;
18072;SDS011;9161;47.348;9.648;2023-11-21T15:10:01;7.27;;;2.27;;
18072;SDS011;9161;47.348;9.648;2023-11-21T15:15:04;4.77;;;1.90;;
18072;SDS011;9161;47.348;9.648;2023-11-21T15:20:12;3.03;;;0.90;;
18072;SDS011;9161;47.348;9.648;2023-11-21T15:25:19;2.20;;;0.37;;
18072;SDS011;9161;47.348;9.648;2023-11-21T15:30:21;2.03;;;0.77;;
18072;SDS011;9161;47.348;9.648;2023-11-21T15:35:27;3.60;;;1.67;;
18072;SDS011;9161;47.348;9.648;2023-11-21T15:40:29;2.23;;;1.50;;
18072;SDS011;9161;47.348;9.648;2023-11-21T15:45:32;2.90;;;1.27;;
18072;SDS011;9161;47.348;9.648;2023-11-21T15:50:35;6.10;;;1.20;;
18072;SDS011;9161;47.348;9.648;2023-11-21T15:55:38;2.40;;;1.40;;
18072;SDS011;9161;47.348;9.648;2023-11-21T16:00:43;3.23;;;1.27;;
18072;SDS011;9161;47.348;9.648;2023-11-21T16:05:50;3.20;;;1.30;;
18072;SDS011;9161;47.348;9.648;2023-11-21T16:10:53;2.07;;;1.27;;
18072;SDS011;9161;47.348;9.648;2023-11-21T16:15:55;3.10;;;1.17;;
18072;SDS011;9161;47.348;9.648;2023-11-21T16:20:59;3.40;;;1.10;;
18072;SDS011;9161;47.348;9.648;2023-11-21T16:26:01;2.77;;;1.20;;
18072;SDS011;9161;47.348;9.648;2023-11-21T16:31:05;2.70;;;1.03;;
18072;SDS011;9161;47.348;9.648;2023-11-21T16:36:09;5.37;;;1.57;;
18072;SDS011;9161;47.348;9.648;2023-11-21T16:41:11;3.87;;;1.97;;
18072;SDS011;9161;47.348;9.648;2023-11-21T16:46:13;6.40;;;1.70;;
18072;SDS011;9161;47.348;9.648;2023-11-21T16:51:18;2.57;;;1.93;;
18072;SDS011;9161;47.348;9.648;2023-11-21T16:56:20;3.43;;;1.97;;
18072;SDS011;9161;47.348;9.648;2023-11-21T17:01:23;5.40;;;1.70;;
18072;SDS011;9161;47.348;9.648;2023-11-21T17:06:30;2.60;;;1.30;;
18072;SDS011;9161;47.348;9.648;2023-11-21T17:11:32;2.50;;;1.50;;
18072;SDS011;9161;47.348;9.648;2023-11-21T17:16:35;3.43;;;1.80;;
18072;SDS011;9161;47.348;9.648;2023-11-21T17:21:42;1.70;;;1.30;;
18072;SDS011;9161;47.348;9.648;2023-11-21T17:26:45;2.57;;;1.40;;
18072;SDS011;9161;47.348;9.648;2023-11-21T17:31:47;7.57;;;3.00;;
18072;SDS011;9161;47.348;9.648;2023-11-21T17:36:51;10.60;;;4.20;;
18072;SDS011;9161;47.348;9.648;2023-11-21T17:41:53;5.60;;;2.93;;
18072;SDS011;9161;47.348;9.648;2023-11-21T17:46:55;7.13;;;2.97;;
18072;SDS011;9161;47.348;9.648;2023-11-21T17:51:59;6.27;;;3.13;;
18072;SDS011;9161;47.348;9.648;2023-11-21T17:57:00;7.33;;;3.20;;
18072;SDS011;9161;47.348;9.648;2023-11-21T18:02:03;9.33;;;4.50;;
18072;SDS011;9161;47.348;9.648;2023-11-21T18:07:07;12.47;;;5.33;;
18072;SDS011;9161;47.348;9.648;2023-11-21T18:12:09;7.93;;;4.33;;
18072;SDS011;9161;47.348;9.648;2023-11-21T18:17:13;5.70;;;3.20;;
18072;SDS011;9161;47.348;9.648;2023-11-21T18:22:18;5.87;;;3.07;;
18072;SDS011;9161;47.348;9.648;2023-11-21T18:27:24;8.57;;;3.30;;
18072;SDS011;9161;47.348;9.648;2023-11-21T18:32:29;9.60;;;4.50;;
18072;SDS011;9161;47.348;9.648;2023-11-21T18:37:34;11.97;;;4.53;;
18072;SDS011;9161;47.348;9.648;2023-11-21T18:42:37;10.77;;;4.87;;
18072;SDS011;9161;47.348;9.648;2023-11-21T18:47:43;8.67;;;3.30;;
18072;SDS011;9161;47.348;9.648;2023-11-21T18:52:46;7.00;;;3.93;;
18072;SDS011;9161;47.348;9.648;2023-11-21T18:57:49;7.23;;;3.63;;
18072;SDS011;9161;47.348;9.648;2023-11-21T19:02:51;8.97;;;4.00;;
18072;SDS011;9161;47.348;9.648;2023-11-21T19:07:55;33.83;;;10.63;;
18072;SDS011;9161;47.348;9.648;2023-11-21T19:12:57;25.27;;;7.83;;
18072;SDS011;9161;47.348;9.648;2023-11-21T19:18:03;12.00;;;5.23;;
18072;SDS011;9161;47.348;9.648;2023-11-21T19:23:08;9.63;;;3.97;;
18072;SDS011;9161;47.348;9.648;2023-11-21T19:28:10;5.90;;;3.43;;
18072;SDS011;9161;47.348;9.648;2023-11-21T19:33:13;7.67;;;3.93;;
18072;SDS011;9161;47.348;9.648;2023-11-21T19:38:17;12.97;;;5.20;;
18072;SDS011;9161;47.348;9.648;2023-11-21T19:43:21;9.40;;;4.20;;
18072;SDS011;9161;47.348;9.648;2023-11-21T19:48:23;6.67;;;4.27;;
18072;SDS011;9161;47.348;9.648;2023-11-21T19:53:27;8.80;;;4.30;;
18072;SDS011;9161;47.348;9.648;2023-11-21T19:58:29;8.13;;;4.47;;
18072;SDS011;9161;47.348;9.648;2023-11-21T20:03:32;8.63;;;4.67;;
18072;SDS011;9161;47.348;9.648;2023-11-21T20:08:37;8.60;;;4.13;;
18072;SDS011;9161;47.348;9.648;2023-11-21T20:13:39;8.27;;;4.40;;
18072;SDS011;9161;47.348;9.648;2023-11-21T20:18:41;9.30;;;4.47;;
18072;SDS011;9161;47.348;9.648;2023-11-21T20:23:45;6.73;;;3.60;;
18072;SDS011;9161;47.348;9.648;2023-11-21T20:28:48;8.03;;;3.90;;
18072;SDS011;9161;47.348;9.648;2023-11-21T20:33:51;9.40;;;4.77;;
18072;SDS011;9161;47.348;9.648;2023-11-21T20:38:54;5.70;;;3.17;;
18072;SDS011;9161;47.348;9.648;2023-11-21T20:43:57;5.87;;;3.40;;
18072;SDS011;9161;47.348;9.648;2023-11-21T20:49:01;10.07;;;5.00;;
18072;SDS011;9161;47.348;9.648;2023-11-21T20:54:05;8.03;;;3.57;;
18072;SDS011;9161;47.348;9.648;2023-11-21T20:59:12;9.13;;;5.07;;
18072;SDS011;9161;47.348;9.648;2023-11-21T21:04:15;9.33;;;4.90;;
18072;SDS011;9161;47.348;9.648;2023-11-21T21:09:20;8.07;;;4.20;;
18072;SDS011;9161;47.348;9.648;2023-11-21T21:14:23;7.03;;;4.37;;
18072;SDS011;9161;47.348;9.648;2023-11-21T21:19:26;14.10;;;5.07;;
18072;SDS011;9161;47.348;9.648;2023-11-21T21:24:33;9.60;;;5.13;;
18072;SDS011;9161;47.348;9.648;2023-11-21T21:29:35;8.63;;;5.00;;
18072;SDS011;9161;47.348;9.648;2023-11-21T21:34:37;8.70;;;5.40;;
18072;SDS011;9161;47.348;9.648;2023-11-21T21:39:42;7.77;;;4.00;;
18072;SDS011;9161;47.348;9.648;2023-11-21T21:44:45;5.33;;;3.20;;
18072;SDS011;9161;47.348;9.648;2023-11-21T21:49:47;5.00;;;2.80;;
18072;SDS011;9161;47.348;9.648;2023-11-21T21:54:53;4.07;;;2.70;;
18072;SDS011;9161;47.348;9.648;2023-11-21T21:59:59;5.43;;;3.07;;
18072;SDS011;9161;47.348;9.648;2023-11-21T22:05:09;5.87;;;3.37;;
18072;SDS011;9161;47.348;9.648;2023-11-21T22:10:16;4.80;;;3.20;;
18072;SDS011;9161;47.348;9.648;2023-11-21T22:15:18;4.57;;;3.13;;
18072;SDS011;9161;47.348;9.648;2023-11-21T22:20:20;8.53;;;3.50;;
18072;SDS011;9161;47.348;9.648;2023-11-21T22:25:24;4.47;;;3.00;;
18072;SDS011;9161;47.348;9.648;2023-11-21T22:30:26;6.63;;;3.40;;
18072;SDS011;9161;47.348;9.648;2023-11-21T22:35:28;3.80;;;2.67;;
18072;SDS011;9161;47.348;9.648;2023-11-21T22:40:32;4.77;;;2.87;;
18072;SDS011;9161;47.348;9.648;2023-11-21T22:45:35;4.57;;;2.60;;
18072;SDS011;9161;47.348;9.648;2023-11-21T22:50:37;5.83;;;2.80;;
18072;SDS011;9161;47.348;9.648;2023-11-21T22:55:41;3.73;;;2.53;;
18072;SDS011;9161;47.348;9.648;2023-11-21T23:00:42;3.03;;;2.00;;
18072;SDS011;9161;47.348;9.648;2023-11-21T23:05:46;5.67;;;2.50;;
18072;SDS011;9161;47.348;9.648;2023-11-21T23:10:49;5.23;;;3.00;;
18072;SDS011;9161;47.348;9.648;2023-11-21T23:15:53;5.10;;;2.93;;
18072;SDS011;9161;47.348;9.648;2023-11-21T23:20:56;4.67;;;2.53;;
18072;SDS011;9161;47.348;9.648;2023-11-21T23:26:01;3.90;;;2.30;;
18072;SDS011;9161;47.348;9.648;2023-11-21T23:31:03;5.17;;;3.17;;
18072;SDS011;9161;47.348;9.648;2023-11-21T23:36:06;7.37;;;3.33;;
18072;SDS011;9161;47.348;9.648;2023-11-21T23:41:09;7.03;;;4.03;;
18072;SDS011;9161;47.348;9.648;2023-11-21T23:46:13;6.33;;;3.27;;
18072;SDS011;9161;47.348;9.648;2023-11-21T23:51:15;4.73;;;2.80;;
18072;SDS011;9161;47.348;9.648;2023-11-21T23:56:19;6.70;;;3.20;;
